createdAt,value
2018-04-08T00:01:41.091Z,9.87
2018-04-08T00:04:09.930Z,9.30
2018-04-08T00:06:45.092Z,8.70
2018-04-08T00:09:15.955Z,10.10
2018-04-08T00:11:45.344Z,9.07
2018-04-08T00:14:18.033Z,9.77
2018-04-08T00:16:58.104Z,9.60
2018-04-08T00:19:28.954Z,10.00
2018-04-08T00:21:58.579Z,10.27
2018-04-08T00:24:28.650Z,10.50
2018-04-08T00:26:59.146Z,10.40
2018-04-08T00:29:32.145Z,10.10
2018-04-08T00:32:08.934Z,9.50
2018-04-08T00:34:38.656Z,10.43
2018-04-08T00:37:08.379Z,9.30
2018-04-08T00:39:38.280Z,10.07
2018-04-08T00:42:07.773Z,10.70
2018-04-08T00:44:37.854Z,9.87
2018-04-08T00:47:07.418Z,9.90
2018-04-08T00:49:38.644Z,10.23
2018-04-08T00:52:07.843Z,10.60
2018-04-08T00:54:38.508Z,11.60
2018-04-08T00:57:08.622Z,10.20
2018-04-08T00:59:39.058Z,9.33
2018-04-08T01:02:08.786Z,10.57
2018-04-08T01:04:38.709Z,10.23
2018-04-08T01:07:26.100Z,9.83
2018-04-08T01:09:55.666Z,9.50
2018-04-08T01:12:25.798Z,12.00
2018-04-08T01:14:54.496Z,10.53
2018-04-08T01:17:26.234Z,10.00
2018-04-08T01:19:56.709Z,10.60
2018-04-08T01:22:26.844Z,10.20
2018-04-08T01:24:58.537Z,9.20
2018-04-08T01:27:30.598Z,9.60
2018-04-08T01:29:59.801Z,10.10
2018-04-08T01:32:30.649Z,9.83
2018-04-08T01:35:00.270Z,10.20
2018-04-08T01:37:30.301Z,10.57
2018-04-08T01:39:59.614Z,9.83
2018-04-08T01:42:29.139Z,10.30
2018-04-08T01:44:59.981Z,9.50
2018-04-08T01:47:29.602Z,9.70
2018-04-08T01:49:59.736Z,9.27
2018-04-08T01:52:30.138Z,11.00
2018-04-08T01:55:00.299Z,10.40
2018-04-08T01:57:29.668Z,9.80
2018-04-08T01:59:59.956Z,9.57
2018-04-08T02:02:29.953Z,9.97
2018-04-08T02:05:00.128Z,9.60
2018-04-08T02:07:30.663Z,9.70
2018-04-08T02:10:00.692Z,8.83
2018-04-08T02:12:29.562Z,9.20
2018-04-08T02:15:00.766Z,9.23
2018-04-08T02:17:29.861Z,9.03
2018-04-08T02:19:58.969Z,8.67
2018-04-08T02:22:29.208Z,8.90
2018-04-08T02:25:03.433Z,9.43
2018-04-08T02:27:35.715Z,9.07
2018-04-08T02:30:06.568Z,8.83
2018-04-08T02:32:36.698Z,9.17
2018-04-08T02:35:06.405Z,8.50
2018-04-08T02:37:35.835Z,9.50
2018-04-08T02:40:07.520Z,9.17
2018-04-08T02:42:37.642Z,9.13
2018-04-08T02:45:07.563Z,8.40
2018-04-08T02:47:38.387Z,10.23
2018-04-08T02:50:08.784Z,9.93
2018-04-08T02:52:39.404Z,9.53
2018-04-08T02:55:09.425Z,9.63
2018-04-08T02:57:40.274Z,8.70
2018-04-08T03:03:06.108Z,9.20
2018-04-08T03:05:36.516Z,10.20
2018-04-08T03:08:10.227Z,9.67
2018-04-08T03:10:40.999Z,8.97
2018-04-08T03:13:13.171Z,8.87
2018-04-08T03:15:42.819Z,8.73
2018-04-08T03:18:14.374Z,8.93
2018-04-08T03:20:47.768Z,9.50
2018-04-08T03:23:20.158Z,9.03
2018-04-08T03:25:51.049Z,10.03
2018-04-08T03:28:21.665Z,9.67
2018-04-08T03:30:53.808Z,9.87
2018-04-08T03:33:23.858Z,9.07
2018-04-08T03:35:57.239Z,9.00
2018-04-08T03:38:26.989Z,9.10
2018-04-08T03:40:57.117Z,9.23
2018-04-08T03:43:28.417Z,9.20
2018-04-08T03:45:57.489Z,9.83
2018-04-08T03:48:30.289Z,9.30
2018-04-08T03:51:00.321Z,9.90
2018-04-08T03:53:31.865Z,8.83
2018-04-08T03:56:02.117Z,8.57
2018-04-08T03:58:33.289Z,10.27
2018-04-08T04:01:04.531Z,9.57
2018-04-08T04:03:35.278Z,9.40
2018-04-08T04:06:05.392Z,9.33
2018-04-08T04:08:36.670Z,9.77
2018-04-08T04:11:06.492Z,9.93
2018-04-08T04:13:36.642Z,9.63
2018-04-08T04:16:08.948Z,9.53
2018-04-08T04:18:50.821Z,9.03
2018-04-08T04:21:34.652Z,9.50
2018-04-08T04:24:15.482Z,9.13
2018-04-08T04:26:45.384Z,9.77
2018-04-08T04:29:17.493Z,9.83
2018-04-08T04:31:47.505Z,10.10
2018-04-08T04:34:19.073Z,9.67
2018-04-08T04:36:49.701Z,9.90
2018-04-08T04:39:22.474Z,9.70
2018-04-08T04:41:53.287Z,9.67
2018-04-08T04:44:23.277Z,9.93
2018-04-08T04:46:53.310Z,9.77
2018-04-08T04:49:24.772Z,9.07
2018-04-08T04:51:55.209Z,10.40
2018-04-08T04:54:25.445Z,10.17
2018-04-08T04:56:54.962Z,10.13
2018-04-08T04:59:24.137Z,9.60
2018-04-08T05:01:53.588Z,9.60
2018-04-08T05:04:25.155Z,10.13
2018-04-08T05:06:59.107Z,9.33
2018-04-08T05:09:29.117Z,10.07
2018-04-08T05:12:02.016Z,10.07
2018-04-08T05:14:33.270Z,9.27
2018-04-08T05:17:07.807Z,9.63
2018-04-08T05:19:39.058Z,9.67
2018-04-08T05:22:13.460Z,8.70
2018-04-08T05:24:44.754Z,9.47
2018-04-08T05:27:15.501Z,9.53
2018-04-08T05:29:47.854Z,9.93
2018-04-08T05:32:21.001Z,9.43
2018-04-08T05:34:52.989Z,9.30
2018-04-08T05:37:24.185Z,9.07
2018-04-08T05:39:57.631Z,9.50
2018-04-08T05:42:35.546Z,8.97
2018-04-08T05:45:06.397Z,8.70
2018-04-08T05:47:37.465Z,9.20
2018-04-08T05:50:08.607Z,10.60
2018-04-08T05:52:38.638Z,9.40
2018-04-08T05:55:16.037Z,8.87
2018-04-08T05:57:47.420Z,9.17
2018-04-08T06:00:18.151Z,9.37
2018-04-08T06:02:50.053Z,8.40
2018-04-08T06:05:19.575Z,9.83
2018-04-08T06:07:49.060Z,5.53
2018-04-08T06:10:18.171Z,9.27
2018-04-08T06:12:48.915Z,8.70
2018-04-08T06:15:18.744Z,6.27
2018-04-08T06:17:48.374Z,7.97
2018-04-08T06:20:19.619Z,8.17
2018-04-08T06:22:49.765Z,7.70
2018-04-08T06:25:21.638Z,8.33
2018-04-08T06:27:52.777Z,8.87
2018-04-08T06:30:26.088Z,6.67
2018-04-08T06:32:57.461Z,9.50
2018-04-08T06:35:26.796Z,7.37
2018-04-08T06:37:58.124Z,8.13
2018-04-08T06:40:31.390Z,8.60
2018-04-08T06:43:01.733Z,5.93
2018-04-08T06:45:31.773Z,9.40
2018-04-08T06:48:03.116Z,8.70
2018-04-08T06:50:32.732Z,6.20
2018-04-08T06:53:05.420Z,8.20
2018-04-08T06:55:35.568Z,9.63
2018-04-08T06:58:05.286Z,7.30
2018-04-08T07:00:35.007Z,9.27
2018-04-08T07:03:04.729Z,5.17
2018-04-08T07:05:37.733Z,7.60
2018-04-08T07:08:07.340Z,9.20
2018-04-08T07:10:37.994Z,5.53
2018-04-08T07:13:11.300Z,7.73
2018-04-08T07:15:40.928Z,7.43
2018-04-08T07:18:10.906Z,7.77
2018-04-08T07:20:40.366Z,5.87
2018-04-08T07:23:10.707Z,9.03
2018-04-08T07:25:41.464Z,6.10
2018-04-08T07:28:11.389Z,10.10
2018-04-08T07:30:41.222Z,9.37
2018-04-08T07:33:11.042Z,6.93
2018-04-08T07:35:41.266Z,11.53
2018-04-08T07:38:12.424Z,10.03
2018-04-08T07:40:42.465Z,9.30
2018-04-08T07:43:13.864Z,10.23
2018-04-08T07:45:43.668Z,10.00
2018-04-08T07:48:12.781Z,10.63
2018-04-08T07:50:42.776Z,9.33
2018-04-08T07:53:12.719Z,8.90
2018-04-08T07:55:42.424Z,8.13
2018-04-08T07:58:12.357Z,10.33
2018-04-08T08:00:42.796Z,10.00
2018-04-08T08:03:13.064Z,10.93
2018-04-08T08:05:43.817Z,10.03
2018-04-08T08:08:13.307Z,10.50
2018-04-08T08:10:44.657Z,9.70
2018-04-08T08:13:14.088Z,11.20
2018-04-08T08:15:45.845Z,11.00
2018-04-08T08:18:17.340Z,10.67
2018-04-08T08:20:47.882Z,10.00
2018-04-08T08:23:18.700Z,5.57
2018-04-08T08:25:50.266Z,10.37
2018-04-08T08:28:21.185Z,10.33
2018-04-08T08:30:50.638Z,9.93
2018-04-08T08:33:24.265Z,11.43
2018-04-08T08:36:00.989Z,11.17
2018-04-08T08:38:31.270Z,9.23
2018-04-08T08:40:59.799Z,10.27
2018-04-08T08:43:33.378Z,10.60
2018-04-08T08:46:03.000Z,10.83
2018-04-08T08:48:34.203Z,10.63
2018-04-08T08:51:07.891Z,10.93
2018-04-08T08:53:39.656Z,10.87
2018-04-08T08:56:09.365Z,11.57
2018-04-08T08:58:40.536Z,12.33
2018-04-08T09:01:10.964Z,11.90
2018-04-08T09:03:42.446Z,12.57
2018-04-08T09:06:12.519Z,11.90
2018-04-08T09:08:45.371Z,10.80
2018-04-08T09:11:18.749Z,10.57
2018-04-08T09:13:48.383Z,11.13
2018-04-08T09:16:18.351Z,11.13
2018-04-08T09:18:49.467Z,7.57
2018-04-08T09:24:27.330Z,11.10
2018-04-08T09:27:02.261Z,9.67
2018-04-08T09:29:32.393Z,11.30
2018-04-08T09:32:02.236Z,11.60
2018-04-08T09:34:32.479Z,8.77
2018-04-08T09:37:02.396Z,8.60
2018-04-08T09:39:32.622Z,11.03
2018-04-08T09:42:03.343Z,7.53
2018-04-08T09:44:32.973Z,8.30
2018-04-08T09:47:04.141Z,11.53
2018-04-08T09:49:34.991Z,10.43
2018-04-08T09:52:05.648Z,7.50
2018-04-08T09:54:35.768Z,8.03
2018-04-08T09:57:07.216Z,6.40
2018-04-08T09:59:38.662Z,8.60
2018-04-08T10:05:24.043Z,9.87
2018-04-08T10:07:54.288Z,10.83
2018-04-08T10:10:21.793Z,12.23
2018-04-08T10:12:49.258Z,10.50
2018-04-08T10:15:16.738Z,11.00
2018-04-08T10:17:44.238Z,10.20
2018-04-08T10:20:12.847Z,11.40
2018-04-08T10:22:40.337Z,10.90
2018-04-08T10:25:07.928Z,10.87
2018-04-08T10:27:35.508Z,9.80
2018-04-08T10:30:02.993Z,10.73
2018-04-08T10:32:30.478Z,8.43
2018-04-08T10:34:57.977Z,10.47
2018-04-08T10:37:25.464Z,8.93
2018-04-08T10:39:52.967Z,9.27
2018-04-08T10:42:20.452Z,9.83
2018-04-08T10:44:47.955Z,9.30
2018-04-08T10:47:15.434Z,7.93
2018-04-08T10:49:42.929Z,10.80
2018-04-08T10:52:10.421Z,10.27
2018-04-08T10:54:37.880Z,8.53
2018-04-08T10:57:05.366Z,9.17
2018-04-08T10:59:32.845Z,7.90
2018-04-08T11:02:00.352Z,9.63
2018-04-08T11:04:27.831Z,10.57
2018-04-08T11:06:55.321Z,10.73
2018-04-08T11:09:22.924Z,12.30
2018-04-08T11:11:50.420Z,10.77
2018-04-08T11:14:18.086Z,9.60
2018-04-08T11:16:46.759Z,11.40
2018-04-08T11:19:14.753Z,12.60
2018-04-08T11:21:42.220Z,10.37
2018-04-08T11:24:09.687Z,11.77
2018-04-08T11:26:37.535Z,10.73
2018-04-08T11:29:05.020Z,10.67
2018-04-08T11:31:33.598Z,11.37
2018-04-08T11:34:01.049Z,10.80
2018-04-08T11:36:28.543Z,9.53
2018-04-08T11:38:56.050Z,6.80
2018-04-08T11:41:23.656Z,10.07
2018-04-08T11:43:51.133Z,8.43
2018-04-08T11:46:18.654Z,8.60
2018-04-08T11:48:46.150Z,9.97
2018-04-08T11:51:13.630Z,9.40
2018-04-08T11:53:41.149Z,6.97
2018-04-08T11:56:08.625Z,9.20
2018-04-08T11:58:36.096Z,8.13
2018-04-08T12:01:03.565Z,7.97
2018-04-08T12:03:31.050Z,9.88
2018-04-08T12:05:58.546Z,8.63
2018-04-08T12:08:26.025Z,8.57
2018-04-08T12:10:53.496Z,9.48
2018-04-08T12:13:21.003Z,6.50
2018-04-08T12:15:48.479Z,8.80
2018-04-08T12:18:15.946Z,7.60
2018-04-08T12:20:43.454Z,8.15
2018-04-08T12:23:10.910Z,8.43
2018-04-08T12:25:38.413Z,9.40
2018-04-08T12:28:05.908Z,8.88
2018-04-08T12:30:33.386Z,6.97
2018-04-08T12:33:00.844Z,5.78
2018-04-08T12:35:29.137Z,8.57
2018-04-08T12:37:56.640Z,6.68
2018-04-08T12:40:24.138Z,8.30
2018-04-08T12:42:51.625Z,6.10
2018-04-08T12:45:19.103Z,6.53
2018-04-08T12:47:46.597Z,7.25
2018-04-08T12:50:14.086Z,5.90
2018-04-08T12:52:41.559Z,5.82
2018-04-08T12:55:09.026Z,5.10
2018-04-08T12:57:36.582Z,5.68
2018-04-08T13:00:04.062Z,7.18
2018-04-08T13:02:31.549Z,6.32
2018-04-08T13:04:59.023Z,6.18
2018-04-08T13:07:26.549Z,5.62
2018-04-08T13:09:54.013Z,7.80
2018-04-08T13:12:21.523Z,8.63
2018-04-08T13:14:49.022Z,7.85
2018-04-08T13:17:16.568Z,7.47
2018-04-08T13:19:44.060Z,7.10
2018-04-08T13:22:11.533Z,6.25
2018-04-08T13:24:39.037Z,6.95
2018-04-08T13:27:06.547Z,6.28
2018-04-08T13:29:34.030Z,5.57
2018-04-08T13:32:01.585Z,5.57
2018-04-08T13:34:29.065Z,6.30
2018-04-08T13:36:56.540Z,5.87
2018-04-08T13:39:24.023Z,6.87
2018-04-08T13:41:51.501Z,5.12
2018-04-08T13:44:19.004Z,4.50
2018-04-08T13:46:46.525Z,4.00
2018-04-08T13:49:14.029Z,6.25
2018-04-08T13:51:41.669Z,4.40
2018-04-08T13:54:09.275Z,5.85
2018-04-08T13:56:36.759Z,4.28
2018-04-08T13:59:04.238Z,5.37
2018-04-08T14:01:32.211Z,4.40
2018-04-08T14:03:59.706Z,4.20
2018-04-08T14:06:27.212Z,3.47
2018-04-08T14:08:54.691Z,3.17
2018-04-08T14:11:22.152Z,3.37
2018-04-08T14:13:49.737Z,3.28
2018-04-08T14:16:17.215Z,3.20
2018-04-08T14:18:44.697Z,2.90
2018-04-08T14:21:12.174Z,3.20
2018-04-08T14:23:39.658Z,2.85
2018-04-08T14:26:07.138Z,2.60
2018-04-08T14:28:34.623Z,2.80
2018-04-08T14:31:02.104Z,2.97
2018-04-08T14:33:29.585Z,2.70
2018-04-08T14:35:57.072Z,2.50
2018-04-08T14:38:24.547Z,2.30
2018-04-08T14:40:52.051Z,2.60
2018-04-08T14:43:19.501Z,3.05
2018-04-08T14:45:47.027Z,2.72
2018-04-08T14:48:14.513Z,3.12
2018-04-08T14:50:42.048Z,2.67
2018-04-08T14:53:09.563Z,2.37
2018-04-08T14:55:37.030Z,2.80
2018-04-08T14:58:04.525Z,3.05
2018-04-08T15:00:32.015Z,3.03
2018-04-08T15:02:59.521Z,2.83
2018-04-08T15:05:26.988Z,2.70
2018-04-08T15:07:54.479Z,2.70
2018-04-08T15:10:21.948Z,3.00
2018-04-08T15:12:49.461Z,2.72
2018-04-08T15:15:16.956Z,2.90
2018-04-08T15:17:50.152Z,3.55
2018-04-08T15:20:19.647Z,3.60
2018-04-08T15:22:49.929Z,3.37
2018-04-08T15:25:19.595Z,3.20
2018-04-08T15:27:47.877Z,3.20
2018-04-08T15:30:24.835Z,3.25
2018-04-08T15:32:54.972Z,3.22
2018-04-08T15:35:23.654Z,3.55
2018-04-08T15:37:51.403Z,2.97
2018-04-08T15:40:19.265Z,3.37
2018-04-08T15:42:47.106Z,3.30
2018-04-08T15:45:14.780Z,3.10
2018-04-08T15:47:48.992Z,3.37
2018-04-08T15:50:18.246Z,3.55
2018-04-08T15:52:48.073Z,3.50
2018-04-08T15:55:15.885Z,3.25
2018-04-08T15:57:43.867Z,3.20
2018-04-08T16:00:13.491Z,3.70
2018-04-08T16:02:42.938Z,3.10
2018-04-08T16:05:10.609Z,3.25
2018-04-08T16:07:38.340Z,3.20
2018-04-08T16:10:06.070Z,3.37
2018-04-08T16:12:33.656Z,3.08
2018-04-08T16:15:02.201Z,3.20
2018-04-08T16:17:29.967Z,3.33
2018-04-08T16:19:58.520Z,10.43
2018-04-08T16:22:26.109Z,3.85
2018-04-08T16:24:54.425Z,5.80
2018-04-08T16:27:25.124Z,4.68
2018-04-08T16:29:53.841Z,3.90
2018-04-08T16:32:21.838Z,3.30
2018-04-08T16:34:49.350Z,3.45
2018-04-08T16:37:17.937Z,6.80
2018-04-08T16:39:45.408Z,4.90
2018-04-08T16:42:12.929Z,4.78
2018-04-08T16:44:40.482Z,4.05
2018-04-08T16:47:07.950Z,3.85
2018-04-08T16:49:35.436Z,3.67
2018-04-08T16:52:02.909Z,3.62
2018-04-08T16:54:30.376Z,3.67
2018-04-08T16:56:57.975Z,3.70
2018-04-08T16:59:25.452Z,4.07
2018-04-08T17:01:55.341Z,4.85
2018-04-08T17:04:22.941Z,3.80
2018-04-08T17:06:50.435Z,3.55
2018-04-08T17:09:17.942Z,3.85
2018-04-08T17:11:45.511Z,4.07
2018-04-08T17:14:12.985Z,4.47
2018-04-08T17:16:40.472Z,4.30
2018-04-08T17:19:07.929Z,4.40
2018-04-08T17:21:35.395Z,3.97
2018-04-08T17:24:02.877Z,3.77
2018-04-08T17:26:30.358Z,3.40
2018-04-08T17:28:57.849Z,3.60
2018-04-08T17:31:25.428Z,4.00
2018-04-08T17:33:52.940Z,3.60
2018-04-08T17:36:20.431Z,3.57
2018-04-08T17:38:47.925Z,4.23
2018-04-08T17:41:15.413Z,3.67
2018-04-08T17:43:42.930Z,3.97
2018-04-08T17:46:10.392Z,4.27
2018-04-08T17:48:37.895Z,5.00
2018-04-08T17:51:05.358Z,4.63
2018-04-08T17:53:32.889Z,4.73
2018-04-08T17:56:00.346Z,4.97
2018-04-08T17:58:27.826Z,4.97
2018-04-08T18:00:55.306Z,4.73
2018-04-08T18:03:22.934Z,5.40
2018-04-08T18:05:50.420Z,5.30
2018-04-08T18:08:17.940Z,5.00
2018-04-08T18:10:45.501Z,4.90
2018-04-08T18:13:13.002Z,5.30
2018-04-08T18:15:40.488Z,5.10
2018-04-08T18:18:08.057Z,5.13
2018-04-08T18:20:35.531Z,4.90
2018-04-08T18:23:03.006Z,4.70
2018-04-08T18:25:30.474Z,5.10
2018-04-08T18:27:57.936Z,5.00
2018-04-08T18:30:25.539Z,4.93
2018-04-08T18:32:53.072Z,5.63
2018-04-08T18:35:20.591Z,4.87
2018-04-08T18:37:48.150Z,4.77
2018-04-08T18:40:15.646Z,4.87
2018-04-08T18:42:43.188Z,5.07
2018-04-08T18:45:10.680Z,4.90
2018-04-08T18:47:39.324Z,5.03
2018-04-08T18:50:06.920Z,5.30
2018-04-08T18:52:34.497Z,5.57
2018-04-08T18:55:07.361Z,5.20
2018-04-08T18:57:34.874Z,5.20
2018-04-08T19:00:02.451Z,5.40
2018-04-08T19:02:30.087Z,5.17
2018-04-08T19:05:01.279Z,5.07
2018-04-08T19:07:28.749Z,5.10
2018-04-08T19:09:56.218Z,5.00
2018-04-08T19:12:23.736Z,4.93
2018-04-08T19:14:56.868Z,5.57
2018-04-08T19:17:29.976Z,5.70
2018-04-08T19:19:57.565Z,5.50
2018-04-08T19:22:26.180Z,6.50
2018-04-08T19:24:54.498Z,6.50
2018-04-08T19:27:27.669Z,6.47
2018-04-08T19:29:55.138Z,6.20
2018-04-08T19:32:22.641Z,6.50
2018-04-08T19:37:23.555Z,6.13
2018-04-08T19:39:51.340Z,6.70
2018-04-08T19:42:18.817Z,6.70
2018-04-08T19:44:46.462Z,7.63
2018-04-08T19:47:13.971Z,6.97
2018-04-08T19:49:41.476Z,7.33
2018-04-08T19:52:08.997Z,8.10
2018-04-08T19:54:36.614Z,7.33
2018-04-08T19:57:04.333Z,7.80
2018-04-08T19:59:32.137Z,7.03
2018-04-08T20:02:00.050Z,7.43
2018-04-08T20:04:28.810Z,6.90
2018-04-08T20:06:59.183Z,7.30
2018-04-08T20:09:26.971Z,7.13
2018-04-08T20:11:54.463Z,7.97
2018-04-08T20:14:23.229Z,8.20
2018-04-08T20:16:50.744Z,6.83
2018-04-08T20:19:18.295Z,43.77
2018-04-08T20:21:46.477Z,25.53
2018-04-08T20:24:14.286Z,7.37
2018-04-08T20:26:41.759Z,6.43
2018-04-08T20:29:09.495Z,6.47
2018-04-08T20:31:37.157Z,6.30
2018-04-08T20:34:04.629Z,6.60
2018-04-08T20:36:32.121Z,6.33
2018-04-08T20:38:59.666Z,8.23
2018-04-08T20:41:27.322Z,7.20
2018-04-08T20:43:54.827Z,7.40
2018-04-08T20:46:22.499Z,7.47
2018-04-08T20:48:49.991Z,6.83
2018-04-08T20:51:17.526Z,7.00
2018-04-08T20:53:45.137Z,6.77
2018-04-08T20:56:12.630Z,7.40
2018-04-08T20:58:40.137Z,6.83
2018-04-08T21:01:07.642Z,6.97
2018-04-08T21:03:35.131Z,6.60
2018-04-08T21:06:02.628Z,6.23
2018-04-08T21:08:30.112Z,5.83
2018-04-08T21:10:57.665Z,6.50
2018-04-08T21:13:25.436Z,6.90
2018-04-08T21:15:52.912Z,6.50
2018-04-08T21:18:20.394Z,6.87
2018-04-08T21:20:47.878Z,7.23
2018-04-08T21:23:15.379Z,6.63
2018-04-08T21:25:42.870Z,6.83
2018-04-08T21:28:10.359Z,6.37
2018-04-08T21:30:37.938Z,5.70
2018-04-08T21:33:05.416Z,6.90
2018-04-08T21:35:32.897Z,6.50
2018-04-08T21:38:00.386Z,6.43
2018-04-08T21:40:27.874Z,6.47
2018-04-08T21:42:55.434Z,7.57
2018-04-08T21:45:23.007Z,6.83
2018-04-08T21:47:50.485Z,6.90
2018-04-08T21:50:17.956Z,6.47
2018-04-08T21:52:45.524Z,6.47
2018-04-08T21:55:13.021Z,5.97
2018-04-08T21:57:40.492Z,7.37
2018-04-08T22:00:07.984Z,6.77
2018-04-08T22:02:35.667Z,8.00
2018-04-08T22:05:03.144Z,7.27
2018-04-08T22:07:30.650Z,6.83
2018-04-08T22:09:58.153Z,7.20
2018-04-08T22:12:25.614Z,6.67
2018-04-08T22:14:53.255Z,7.60
2018-04-08T22:17:20.735Z,7.30
2018-04-08T22:19:48.251Z,7.20
2018-04-08T22:22:15.741Z,6.57
2018-04-08T22:24:43.200Z,7.30
2018-04-08T22:27:10.682Z,7.30
2018-04-08T22:29:38.167Z,7.57
2018-04-08T22:32:05.722Z,6.93
2018-04-08T22:34:33.229Z,6.80
2018-04-08T22:37:00.719Z,7.27
2018-04-08T22:39:28.197Z,6.80
2018-04-08T22:41:55.715Z,6.60
2018-04-08T22:44:23.394Z,6.03
2018-04-08T22:46:50.895Z,7.00
2018-04-08T22:49:18.386Z,7.33
2018-04-08T22:51:45.844Z,6.23
2018-04-08T22:54:13.355Z,7.53
2018-04-08T22:56:40.897Z,8.23
2018-04-08T22:59:08.421Z,7.30
2018-04-08T23:01:36.160Z,6.90
2018-04-08T23:04:03.779Z,8.07
2018-04-08T23:06:31.268Z,7.73
2018-04-08T23:08:58.747Z,8.50
2018-04-08T23:11:26.342Z,7.57
2018-04-08T23:13:53.820Z,7.70
2018-04-08T23:16:21.306Z,8.23
2018-04-08T23:18:48.786Z,8.77
2018-04-08T23:21:16.268Z,8.17
2018-04-08T23:23:43.847Z,8.60
2018-04-08T23:26:11.308Z,7.87
2018-04-08T23:28:38.933Z,8.30
2018-04-08T23:31:06.424Z,8.40
2018-04-08T23:33:33.900Z,8.10
2018-04-08T23:36:01.385Z,8.47
2018-04-08T23:38:28.885Z,8.90
2018-04-08T23:40:56.367Z,8.83
2018-04-08T23:43:23.861Z,9.47
2018-04-08T23:45:51.363Z,9.87
2018-04-08T23:48:18.943Z,9.03
2018-04-08T23:50:46.462Z,8.77
2018-04-08T23:53:13.958Z,8.93
2018-04-08T23:55:41.453Z,8.33
2018-04-08T23:58:08.977Z,9.57
